Time;durP1;ratioP1;P1;durP2;ratioP2;P2;SDS_P1;SDS_P2;PMS_P1;PMS_P2;Temp;Humidity;BMP_temperature;BMP_pressure;BME280_temperature;BME280_humidity;BME280_pressure;Samples;Min_cycle;Max_cycle;Signal;HPM_P1;HPM_P2
2021/11/29 00:01:36;;;;;;;13.60;7.53;;;3.90;99.90;;;;;;4973381;28;20166;-78
2021/11/29 00:04:02;;;;;;;12.85;7.97;;;4.00;99.90;;;;;;4973193;28;20169;-77
2021/11/29 00:06:28;;;;;;;15.57;8.02;;;4.00;99.90;;;;;;4973083;28;20247;-78
2021/11/29 00:08:53;;;;;;;10.32;8.00;;;4.10;99.90;;;;;;4975408;28;20166;-78
2021/11/29 00:11:20;;;;;;;16.17;8.15;;;4.00;99.90;;;;;;4977213;28;20529;-78
2021/11/29 00:13:46;;;;;;;22.30;8.50;;;3.90;99.90;;;;;;4977435;28;20568;-78
2021/11/29 00:16:12;;;;;;;14.98;8.02;;;3.90;99.90;;;;;;4977303;28;20185;-78
2021/11/29 00:18:38;;;;;;;15.32;10.10;;;3.90;99.90;;;;;;4977382;28;20227;-77
2021/11/29 00:21:05;;;;;;;13.48;8.48;;;4.00;99.90;;;;;;4977153;28;20169;-77
2021/11/29 00:23:32;;;;;;;19.75;9.45;;;4.20;99.90;;;;;;4977222;28;20190;-78
2021/11/29 00:25:58;;;;;;;12.48;9.10;;;3.80;99.90;;;;;;4959572;28;20200;-77
2021/11/29 00:28:24;;;;;;;16.58;9.73;;;3.90;99.90;;;;;;4977144;28;20287;-77
2021/11/29 00:30:49;;;;;;;19.38;8.98;;;3.80;99.90;;;;;;4977045;28;20702;-78
2021/11/29 00:33:16;;;;;;;22.13;10.32;;;3.70;99.90;;;;;;4976399;28;20778;-77
2021/11/29 00:35:41;;;;;;;16.02;9.10;;;3.70;99.90;;;;;;4976327;28;20200;-77
2021/11/29 00:38:10;;;;;;;18.98;9.68;;;3.70;99.90;;;;;;4976535;28;20253;-77
2021/11/29 00:40:38;;;;;;;13.70;8.23;;;3.60;99.90;;;;;;4976543;28;20170;-77
2021/11/29 00:43:04;;;;;;;19.88;9.00;;;3.60;99.90;;;;;;4976915;28;20166;-77
2021/11/29 00:45:29;;;;;;;15.15;9.32;;;3.50;99.90;;;;;;4976734;28;20192;-77
2021/11/29 00:47:55;;;;;;;16.52;9.45;;;3.50;99.90;;;;;;4976681;28;20198;-77
2021/11/29 00:50:22;;;;;;;15.45;9.18;;;3.50;99.90;;;;;;4975555;28;20234;-77
2021/11/29 00:52:47;;;;;;;18.13;9.85;;;3.60;99.90;;;;;;4976181;28;20213;-77
2021/11/29 00:55:15;;;;;;;15.07;9.40;;;3.70;99.90;;;;;;4975164;28;20278;-77
2021/11/29 00:57:41;;;;;;;11.40;9.27;;;3.70;99.90;;;;;;4976691;28;20217;-78
2021/11/29 01:00:11;;;;;;;17.83;9.43;;;3.70;99.90;;;;;;4976496;28;20158;-78
2021/11/29 01:02:37;;;;;;;15.40;9.63;;;3.50;99.90;;;;;;4976439;28;20179;-78
2021/11/29 01:05:04;;;;;;;19.15;10.60;;;3.50;99.90;;;;;;4976207;28;20175;-78
2021/11/29 01:07:29;;;;;;;16.92;10.30;;;3.50;99.90;;;;;;4976174;28;20217;-77
2021/11/29 01:09:55;;;;;;;16.98;10.38;;;3.70;99.90;;;;;;4974953;28;20628;-77
2021/11/29 01:12:21;;;;;;;16.75;9.95;;;3.90;99.90;;;;;;4975979;28;20202;-78
2021/11/29 01:14:47;;;;;;;16.45;9.82;;;3.90;99.90;;;;;;4976388;28;20166;-78
2021/11/29 01:17:12;;;;;;;13.48;10.10;;;3.90;99.90;;;;;;4976201;28;20209;-77
2021/11/29 01:19:38;;;;;;;15.90;9.43;;;3.70;99.90;;;;;;4975802;28;20177;-78
2021/11/29 01:22:05;;;;;;;16.35;10.02;;;3.50;99.90;;;;;;4974588;28;20184;-78
2021/11/29 01:24:31;;;;;;;19.65;9.07;;;3.30;99.90;;;;;;4975838;28;20365;-78
2021/11/29 01:26:57;;;;;;;14.52;10.15;;;3.30;99.90;;;;;;4975747;28;20366;-77
2021/11/29 01:29:23;;;;;;;16.38;10.38;;;3.40;99.90;;;;;;4958342;28;20257;-78
2021/11/29 01:31:49;;;;;;;15.82;9.48;;;3.30;99.90;;;;;;4975740;28;20193;-77
2021/11/29 01:34:15;;;;;;;19.02;10.38;;;3.20;99.90;;;;;;4975944;28;20201;-78
2021/11/29 01:36:41;;;;;;;14.70;9.93;;;3.00;99.90;;;;;;4975823;28;20186;-77
2021/11/29 01:39:07;;;;;;;12.95;9.65;;;2.90;99.90;;;;;;4975859;28;20177;-77
2021/11/29 01:41:33;;;;;;;13.75;9.48;;;2.90;99.90;;;;;;4975954;28;20205;-77
2021/11/29 01:43:59;;;;;;;16.77;9.52;;;3.00;99.90;;;;;;4975882;28;20178;-77
2021/11/29 01:46:24;;;;;;;14.77;9.55;;;3.00;99.90;;;;;;4975366;28;20190;-77
2021/11/29 01:48:51;;;;;;;10.07;8.35;;;2.90;99.90;;;;;;4975546;28;20535;-77
2021/11/29 01:51:16;;;;;;;11.98;8.82;;;3.00;99.90;;;;;;4975508;28;20166;-78
2021/11/29 01:53:42;;;;;;;14.30;9.13;;;3.00;99.90;;;;;;4975467;28;20216;-77
2021/11/29 01:56:08;;;;;;;17.85;8.80;;;3.00;99.90;;;;;;4975243;28;20193;-78
2021/11/29 01:58:36;;;;;;;11.27;8.02;;;3.10;99.90;;;;;;4975346;28;20166;-77
2021/11/29 02:01:08;;;;;;;10.07;7.55;;;3.10;99.90;;;;;;4967702;28;20170;-77
2021/11/29 02:03:34;;;;;;;8.70;7.57;;;2.90;99.90;;;;;;4989916;28;20170;-78
2021/11/29 02:06:00;;;;;;;12.52;8.48;;;3.00;99.90;;;;;;4975420;28;20219;-78
2021/11/29 02:08:26;;;;;;;8.60;6.35;;;2.90;99.90;;;;;;4975365;28;20177;-78
2021/11/29 02:10:52;;;;;;;9.27;7.32;;;2.90;99.90;;;;;;4975242;28;20273;-78
2021/11/29 02:13:20;;;;;;;19.35;7.40;;;2.90;99.90;;;;;;4975006;28;20210;-77
2021/11/29 02:15:51;;;;;;;10.90;7.78;;;2.90;99.90;;;;;;4975069;28;20216;-78
2021/11/29 02:18:25;;;;;;;7.30;6.50;;;2.80;99.90;;;;;;4975167;28;20177;-77
2021/11/29 02:21:09;;;;;;;8.32;6.80;;;3.00;99.90;;;;;;4974956;28;20164;-78
2021/11/29 02:23:44;;;;;;;12.00;7.15;;;3.00;99.90;;;;;;4974862;28;20221;-78
2021/11/29 02:26:10;;;;;;;9.32;7.03;;;2.90;99.90;;;;;;4974754;28;20189;-78
2021/11/29 02:28:39;;;;;;;8.48;6.03;;;2.90;99.90;;;;;;4974925;28;20174;-78
2021/11/29 02:31:10;;;;;;;7.43;6.68;;;2.80;99.90;;;;;;4974532;28;20285;-78
2021/11/29 02:33:36;;;;;;;7.13;5.57;;;3.00;99.90;;;;;;4957540;28;20213;-77
2021/11/29 02:36:03;;;;;;;6.97;5.40;;;3.00;99.90;;;;;;4974617;28;20186;-78
2021/11/29 02:38:30;;;;;;;10.05;4.50;;;3.10;99.90;;;;;;4957183;28;20178;-78
2021/11/29 02:40:56;;;;;;;5.10;4.65;;;3.10;99.90;;;;;;4974584;28;20173;-78
2021/11/29 02:43:21;;;;;;;5.20;4.70;;;3.10;99.90;;;;;;4974697;28;20245;-77
2021/11/29 02:45:47;;;;;;;6.70;4.60;;;3.10;99.90;;;;;;4974673;28;20660;-77
2021/11/29 02:48:13;;;;;;;6.00;4.45;;;3.10;99.90;;;;;;4974549;28;20205;-78
2021/11/29 02:50:39;;;;;;;5.10;4.53;;;3.30;99.90;;;;;;4974296;28;20166;-78
2021/11/29 02:53:09;;;;;;;6.85;4.15;;;3.30;99.90;;;;;;4974351;28;20210;-77
2021/11/29 02:55:38;;;;;;;7.32;6.07;;;3.20;99.90;;;;;;4974246;28;20182;-77
2021/11/29 02:58:07;;;;;;;6.85;5.35;;;3.00;99.90;;;;;;4974575;28;20172;-78
2021/11/29 03:00:34;;;;;;;8.20;5.28;;;3.10;99.90;;;;;;4974245;28;20201;-77
2021/11/29 03:03:03;;;;;;;5.93;5.45;;;3.10;99.90;;;;;;4974167;28;20716;-78
2021/11/29 03:05:29;;;;;;;5.43;4.88;;;2.90;99.90;;;;;;4974414;28;20197;-78
2021/11/29 03:07:55;;;;;;;6.30;5.47;;;3.10;99.90;;;;;;4974280;28;20182;-77
2021/11/29 03:10:20;;;;;;;6.10;5.28;;;3.00;99.90;;;;;;4974142;28;20170;-78
2021/11/29 03:12:46;;;;;;;7.07;5.10;;;3.00;99.90;;;;;;4974019;28;20245;-78
2021/11/29 03:15:12;;;;;;;5.82;5.28;;;2.80;99.90;;;;;;4973994;28;20169;-78
2021/11/29 03:17:37;;;;;;;8.05;5.28;;;2.70;99.90;;;;;;4973979;28;20205;-78
2021/11/29 03:20:08;;;;;;;7.68;5.32;;;2.70;99.90;;;;;;4973787;28;20166;-77
2021/11/29 03:22:34;;;;;;;6.53;5.82;;;2.70;99.90;;;;;;4973633;28;20260;-78
2021/11/29 03:25:00;;;;;;;7.50;5.97;;;2.70;99.90;;;;;;4973573;28;20257;-77
2021/11/29 03:27:25;;;;;;;7.13;5.38;;;2.80;99.90;;;;;;4956357;28;20194;-78
2021/11/29 03:29:53;;;;;;;12.18;5.72;;;2.80;99.90;;;;;;4973970;28;20166;-77
2021/11/29 03:32:19;;;;;;;4.80;4.45;;;2.70;99.90;;;;;;4956217;28;20568;-78
2021/11/29 03:34:45;;;;;;;5.57;5.07;;;3.00;99.90;;;;;;4973750;28;20170;-78
2021/11/29 03:37:11;;;;;;;4.20;3.80;;;2.90;99.90;;;;;;4973622;28;20243;-77
2021/11/29 03:39:37;;;;;;;7.60;4.95;;;3.00;99.90;;;;;;4973645;28;20252;-78
2021/11/29 03:42:05;;;;;;;4.95;3.55;;;3.30;99.90;;;;;;4973542;28;20174;-78
2021/11/29 03:44:32;;;;;;;6.13;4.38;;;3.20;99.90;;;;;;4973067;28;20166;-77
2021/11/29 03:46:58;;;;;;;3.72;3.42;;;3.40;99.90;;;;;;4973421;28;20197;-77
2021/11/29 03:49:24;;;;;;;3.28;3.08;;;3.30;99.90;;;;;;4973528;28;20165;-78
2021/11/29 03:51:50;;;;;;;8.57;4.35;;;3.20;99.90;;;;;;4973114;28;20164;-80
2021/11/29 03:54:16;;;;;;;4.82;3.30;;;3.30;99.90;;;;;;4974342;28;20245;-77
2021/11/29 03:56:42;;;;;;;3.40;3.10;;;3.10;99.90;;;;;;4973699;28;20198;-77
2021/11/29 03:59:08;;;;;;;4.38;3.25;;;3.10;99.90;;;;;;4973840;28;20616;-77
2021/11/29 04:01:34;;;;;;;3.53;3.22;;;3.20;99.90;;;;;;4973388;28;20184;-78
2021/11/29 04:04:01;;;;;;;5.03;3.55;;;3.20;99.90;;;;;;4973333;28;20177;-77
2021/11/29 04:06:27;;;;;;;4.15;3.75;;;3.20;99.90;;;;;;4973053;28;20196;-78
2021/11/29 04:08:52;;;;;;;8.27;3.78;;;3.10;99.90;;;;;;4973534;28;20174;-77
2021/11/29 04:11:20;;;;;;;7.75;3.80;;;3.00;99.90;;;;;;4972280;28;20170;-78
2021/11/29 04:13:46;;;;;;;3.22;3.03;;;3.10;99.90;;;;;;4973602;28;20212;-77
2021/11/29 04:16:13;;;;;;;3.30;3.00;;;3.00;99.90;;;;;;4973152;28;20687;-77
2021/11/29 04:18:41;;;;;;;3.75;3.45;;;3.00;99.90;;;;;;4973753;28;20181;-77
2021/11/29 04:21:06;;;;;;;3.72;2.90;;;3.10;99.90;;;;;;4982181;28;20229;-77
2021/11/29 04:23:33;;;;;;;3.70;3.40;;;3.20;99.90;;;;;;4989960;28;20201;-76
2021/11/29 04:26:02;;;;;;;3.90;3.60;;;3.40;99.90;;;;;;4973308;28;20595;-77
2021/11/29 04:28:28;;;;;;;3.75;3.45;;;3.40;99.90;;;;;;4973810;28;20173;-78
2021/11/29 04:30:54;;;;;;;3.58;3.25;;;3.40;99.90;;;;;;4956054;28;20183;-77
2021/11/29 04:33:20;;;;;;;4.53;2.33;;;3.40;99.90;;;;;;4973168;28;20576;-78
2021/11/29 04:35:46;;;;;;;2.60;2.40;;;3.30;99.90;;;;;;4972994;28;20220;-77
2021/11/29 04:38:12;;;;;;;2.20;2.00;;;3.20;99.90;;;;;;4973250;28;20257;-78
2021/11/29 04:40:38;;;;;;;2.47;2.13;;;3.20;99.90;;;;;;4973315;28;20173;-77
2021/11/29 04:43:04;;;;;;;3.75;2.08;;;3.30;99.90;;;;;;4973320;28;20166;-77
2021/11/29 04:45:31;;;;;;;2.05;1.95;;;3.50;99.90;;;;;;4973118;28;20551;-77
2021/11/29 04:47:57;;;;;;;2.72;2.53;;;3.50;99.90;;;;;;4973099;28;20703;-77
2021/11/29 04:50:23;;;;;;;3.67;2.20;;;3.60;99.90;;;;;;4973228;28;20178;-77
2021/11/29 04:52:49;;;;;;;2.90;2.38;;;3.90;99.90;;;;;;4971588;28;20249;-78
2021/11/29 04:55:15;;;;;;;8.15;2.80;;;3.80;99.90;;;;;;4975253;28;20169;-77
2021/11/29 04:57:41;;;;;;;2.65;2.35;;;3.80;99.90;;;;;;4976600;28;20212;-77
2021/11/29 05:00:10;;;;;;;3.22;2.83;;;3.80;99.90;;;;;;4959634;28;20166;-77
2021/11/29 05:02:36;;;;;;;2.85;2.40;;;3.70;99.90;;;;;;4976664;28;20174;-77
2021/11/29 05:05:01;;;;;;;3.20;2.90;;;3.80;99.90;;;;;;4976210;28;20224;-77
2021/11/29 05:07:27;;;;;;;2.80;2.60;;;3.80;99.90;;;;;;4976231;28;20197;-76
2021/11/29 05:09:53;;;;;;;7.22;2.38;;;3.80;99.90;;;;;;4976329;28;20654;-78
2021/11/29 05:12:19;;;;;;;3.00;2.53;;;3.80;99.90;;;;;;4976160;28;20268;-77
2021/11/29 05:14:47;;;;;;;2.70;2.50;;;3.80;99.90;;;;;;4976325;28;20168;-77
2021/11/29 05:17:16;;;;;;;3.30;3.00;;;3.80;99.90;;;;;;4976022;28;20236;-77
2021/11/29 05:19:42;;;;;;;2.75;2.50;;;3.70;99.90;;;;;;4976134;28;20252;-80
2021/11/29 05:22:08;;;;;;;3.33;3.13;;;3.60;99.90;;;;;;4976186;28;20256;-78
2021/11/29 05:24:34;;;;;;;3.78;3.35;;;3.60;99.90;;;;;;4975824;28;20212;-77
2021/11/29 05:27:00;;;;;;;3.70;3.40;;;3.70;99.90;;;;;;4975686;28;20752;-77
2021/11/29 05:29:25;;;;;;;3.17;2.45;;;3.60;99.90;;;;;;4974362;28;20173;-78
2021/11/29 05:31:51;;;;;;;3.78;3.15;;;3.60;99.90;;;;;;4975377;28;20529;-78
2021/11/29 05:34:18;;;;;;;2.90;2.70;;;3.50;99.90;;;;;;4975866;28;20656;-78
2021/11/29 05:36:45;;;;;;;3.17;2.65;;;3.70;99.90;;;;;;4975562;28;20186;-77
2021/11/29 05:39:14;;;;;;;3.67;3.38;;;3.70;99.90;;;;;;4975592;28;20173;-77
2021/11/29 05:41:39;;;;;;;4.40;2.90;;;3.70;99.90;;;;;;4958153;28;20537;-79
2021/11/29 05:44:05;;;;;;;3.50;3.20;;;3.40;99.90;;;;;;4976010;28;20166;-77
2021/11/29 05:46:31;;;;;;;2.85;2.60;;;3.40;99.90;;;;;;4975634;28;20193;-78
2021/11/29 05:48:57;;;;;;;7.32;2.72;;;3.40;99.90;;;;;;4975503;28;20166;-77
2021/11/29 05:51:23;;;;;;;3.35;3.08;;;3.40;99.90;;;;;;4975422;28;20593;-79
2021/11/29 05:53:49;;;;;;;3.30;3.00;;;3.40;99.90;;;;;;4975081;28;20284;-77
2021/11/29 05:56:15;;;;;;;3.15;2.90;;;3.40;99.90;;;;;;4975279;28;20277;-78
2021/11/29 05:58:41;;;;;;;3.50;3.20;;;3.30;99.90;;;;;;4975457;28;20170;-77
2021/11/29 06:01:07;;;;;;;4.40;3.47;;;3.20;99.90;;;;;;4975333;28;20608;-77
2021/11/29 06:03:33;;;;;;;5.30;4.07;;;3.10;99.90;;;;;;4975238;28;20178;-78
2021/11/29 06:05:58;;;;;;;4.38;4.07;;;3.20;99.90;;;;;;4974118;28;20190;-76
2021/11/29 06:08:24;;;;;;;5.20;4.78;;;3.10;99.90;;;;;;4975400;28;20170;-76
2021/11/29 06:10:50;;;;;;;5.93;4.78;;;3.00;99.90;;;;;;4975200;28;20177;-76
2021/11/29 06:13:15;;;;;;;4.97;4.57;;;3.10;99.90;;;;;;4975089;28;20680;-76
2021/11/29 06:15:42;;;;;;;5.45;5.03;;;3.20;99.90;;;;;;4974858;28;20186;-82
2021/11/29 06:18:08;;;;;;;6.28;5.68;;;3.20;99.90;;;;;;4974854;28;20628;-77
2021/11/29 06:20:33;;;;;;;4.72;4.32;;;3.00;99.90;;;;;;4957774;28;20166;-76
2021/11/29 06:23:00;;;;;;;6.13;5.45;;;3.00;99.90;;;;;;4974628;28;20208;-77
2021/11/29 06:25:26;;;;;;;10.80;5.00;;;3.10;99.90;;;;;;4956996;28;20188;-76
2021/11/29 06:27:52;;;;;;;5.57;4.97;;;3.20;99.90;;;;;;4974416;28;20527;-76
2021/11/29 06:30:19;;;;;;;5.32;4.93;;;3.10;99.90;;;;;;4975100;28;20166;-77
2021/11/29 06:32:45;;;;;;;5.80;5.30;;;3.10;99.90;;;;;;4974465;28;20574;-77
2021/11/29 06:35:11;;;;;;;5.85;5.35;;;3.20;99.90;;;;;;4974919;28;20241;-76
2021/11/29 06:37:38;;;;;;;5.43;4.82;;;3.10;99.90;;;;;;4974423;28;20176;-77
2021/11/29 06:40:06;;;;;;;5.40;4.90;;;3.10;99.90;;;;;;4974559;28;20169;-77
2021/11/29 06:42:31;;;;;;;4.80;4.40;;;2.90;99.90;;;;;;4982137;28;20197;-78
2021/11/29 06:44:57;;;;;;;9.32;4.45;;;3.00;99.90;;;;;;4994826;28;20166;-81
2021/11/29 06:47:23;;;;;;;4.05;3.75;;;3.20;99.90;;;;;;4974701;28;20221;-78
2021/11/29 06:49:49;;;;;;;4.43;3.88;;;3.10;99.90;;;;;;4974747;28;20166;-77
2021/11/29 06:52:15;;;;;;;5.78;3.72;;;3.10;99.90;;;;;;4973688;28;20205;-77
2021/11/29 06:54:41;;;;;;;4.60;3.92;;;3.20;99.90;;;;;;4956562;28;20336;-78
2021/11/29 06:57:07;;;;;;;3.80;3.50;;;3.20;99.90;;;;;;4972679;28;20186;-76
2021/11/29 06:59:34;;;;;;;4.82;3.85;;;3.20;99.90;;;;;;4974451;28;20232;-79
2021/11/29 07:02:02;;;;;;;3.80;3.50;;;3.30;99.90;;;;;;4974626;28;20170;-77
2021/11/29 07:04:28;;;;;;;3.72;3.42;;;3.30;99.90;;;;;;4974791;28;20895;-81
2021/11/29 07:06:53;;;;;;;10.98;4.38;;;3.30;99.90;;;;;;4973220;28;20190;-77
2021/11/29 07:09:19;;;;;;;10.57;3.72;;;3.40;99.90;;;;;;4974017;28;20166;-82
2021/11/29 07:11:45;;;;;;;8.10;3.22;;;3.50;99.90;;;;;;4972493;28;20174;-81
2021/11/29 07:14:11;;;;;;;4.10;3.70;;;3.50;99.90;;;;;;4972847;28;20711;-78
2021/11/29 07:16:38;;;;;;;3.65;3.13;;;3.50;99.90;;;;;;4973502;28;20201;-78
2021/11/29 07:19:05;;;;;;;26.33;5.15;;;3.40;99.90;;;;;;4955960;28;20256;-77
2021/11/29 07:21:30;;;;;;;6.32;4.07;;;3.50;99.90;;;;;;4973709;28;20262;-78
2021/11/29 07:23:57;;;;;;;11.73;4.00;;;3.70;99.90;;;;;;4973536;28;20280;-83
2021/11/29 07:26:23;;;;;;;7.63;3.33;;;3.80;99.90;;;;;;4973616;28;20236;-76
2021/11/29 07:28:49;;;;;;;9.52;3.40;;;3.90;99.90;;;;;;4973825;28;20177;-80
2021/11/29 07:31:15;;;;;;;4.15;3.67;;;3.90;99.90;;;;;;4956360;28;20176;-79
2021/11/29 07:33:40;;;;;;;3.45;2.80;;;3.80;99.90;;;;;;4973433;28;20209;-79
2021/11/29 07:36:06;;;;;;;2.60;2.38;;;3.90;99.90;;;;;;4973888;28;20754;-78
2021/11/29 07:38:32;;;;;;;4.15;3.00;;;3.80;99.90;;;;;;4965033;28;20189;-77
2021/11/29 07:40:58;;;;;;;3.70;3.10;;;3.80;99.90;;;;;;4961475;28;20272;-78
2021/11/29 07:43:24;;;;;;;4.80;3.45;;;3.70;99.90;;;;;;4973096;28;20545;-78
2021/11/29 07:45:50;;;;;;;9.45;2.83;;;3.70;99.90;;;;;;4973057;28;20226;-77
2021/11/29 07:48:17;;;;;;;3.70;3.35;;;3.70;99.90;;;;;;4968802;28;20170;-78
2021/11/29 07:50:43;;;;;;;3.13;2.83;;;3.70;99.90;;;;;;4935720;29;20170;-83
2021/11/29 07:53:08;;;;;;;4.75;3.00;;;3.70;99.90;;;;;;4952686;29;20712;-80
2021/11/29 07:55:34;;;;;;;3.80;3.30;;;3.70;99.90;;;;;;4954500;29;20186;-82
2021/11/29 07:58:02;;;;;;;3.22;2.92;;;4.00;99.90;;;;;;4944408;29;20206;-85
2021/11/29 08:00:34;;;;;;;4.63;2.83;;;4.10;99.90;;;;;;4951066;28;20174;-78
2021/11/29 08:03:02;;;;;;;2.92;2.40;;;4.20;99.90;;;;;;4975241;28;20173;-82
2021/11/29 08:05:30;;;;;;;5.10;2.90;;;4.40;99.90;;;;;;4975024;28;20527;-93
2021/11/29 08:07:56;;;;;;;3.30;3.00;;;4.40;99.90;;;;;;4954296;28;20197;-79
2021/11/29 08:10:23;;;;;;;3.25;2.95;;;4.60;99.90;;;;;;4968819;28;20532;-80
2021/11/29 08:12:49;;;;;;;6.50;3.25;;;4.40;99.90;;;;;;4960913;28;20206;-79
2021/11/29 08:15:16;;;;;;;2.92;2.72;;;4.30;99.90;;;;;;4966260;28;20177;-80
2021/11/29 08:17:42;;;;;;;6.32;2.85;;;4.10;99.90;;;;;;4972784;28;20239;-77
2021/11/29 08:20:08;;;;;;;2.95;2.65;;;4.00;99.90;;;;;;4969760;28;20162;-79
2021/11/29 08:22:34;;;;;;;2.75;2.38;;;4.10;99.90;;;;;;4953433;28;20186;-78
2021/11/29 08:25:01;;;;;;;3.33;3.03;;;4.10;99.90;;;;;;4936933;29;20250;-79
2021/11/29 08:27:28;;;;;;;4.28;3.50;;;4.00;99.90;;;;;;4960647;28;20197;-80
2021/11/29 08:29:53;;;;;;;3.47;3.03;;;4.10;99.90;;;;;;4956909;28;20200;-78
2021/11/29 08:32:19;;;;;;;7.78;3.58;;;4.20;99.90;;;;;;4975750;28;20683;-77
2021/11/29 08:34:44;;;;;;;4.30;3.10;;;4.40;99.90;;;;;;4958970;28;20446;-77
2021/11/29 08:37:12;;;;;;;5.75;3.15;;;4.20;99.90;;;;;;4956882;29;20552;-77
2021/11/29 08:39:39;;;;;;;9.45;3.83;;;4.10;99.90;;;;;;4973389;28;20189;-77
2021/11/29 08:42:06;;;;;;;4.20;2.70;;;4.00;99.90;;;;;;4974523;28;20170;-77
2021/11/29 08:44:32;;;;;;;5.75;3.60;;;3.90;99.90;;;;;;4958856;28;20178;-78
2021/11/29 08:46:59;;;;;;;9.38;3.13;;;3.90;99.90;;;;;;4957927;28;20190;-81
2021/11/29 08:49:25;;;;;;;13.57;3.92;;;3.90;99.90;;;;;;4978735;28;20632;-79
2021/11/29 08:51:54;;;;;;;3.13;2.83;;;4.10;99.90;;;;;;4975841;28;20162;-78
2021/11/29 08:54:19;;;;;;;3.00;2.58;;;4.10;99.90;;;;;;4977308;28;20245;-78
2021/11/29 08:56:46;;;;;;;11.48;2.90;;;4.10;99.90;;;;;;4976931;28;20190;-79
2021/11/29 08:59:17;;;;;;;4.03;2.88;;;4.20;99.90;;;;;;4977801;28;20174;-79
2021/11/29 09:01:44;;;;;;;8.60;2.83;;;4.20;99.90;;;;;;4975033;28;20205;-78
2021/11/29 09:04:10;;;;;;;2.78;2.28;;;4.30;99.90;;;;;;4975726;28;20649;-85
2021/11/29 09:06:36;;;;;;;6.10;3.70;;;4.30;99.90;;;;;;4986569;28;20194;-80
2021/11/29 09:09:03;;;;;;;4.55;2.83;;;4.30;99.90;;;;;;4988171;28;20250;-81
2021/11/29 09:11:29;;;;;;;4.65;2.70;;;4.50;99.90;;;;;;4958389;28;20170;-81
2021/11/29 09:13:56;;;;;;;3.13;2.45;;;4.40;99.90;;;;;;4975759;28;20205;-81
2021/11/29 09:16:22;;;;;;;2.95;2.50;;;4.50;99.90;;;;;;4974308;28;20197;-78
2021/11/29 09:18:47;;;;;;;7.38;2.63;;;4.60;99.90;;;;;;4974764;28;20182;-78
2021/11/29 09:21:16;;;;;;;8.80;3.17;;;4.60;99.90;;;;;;4974444;28;20184;-78
2021/11/29 09:23:42;;;;;;;4.95;3.00;;;4.60;99.90;;;;;;4957531;28;20549;-78
2021/11/29 09:26:09;;;;;;;2.58;2.38;;;4.80;99.90;;;;;;4975039;28;20182;-76
2021/11/29 09:28:35;;;;;;;3.55;2.80;;;4.70;99.90;;;;;;4974383;28;20184;-77
2021/11/29 09:31:01;;;;;;;10.43;2.60;;;4.60;99.90;;;;;;4975065;28;20185;-76
2021/11/29 09:33:27;;;;;;;2.53;2.30;;;4.60;99.90;;;;;;4974249;28;20213;-76
2021/11/29 09:35:53;;;;;;;2.95;2.50;;;4.60;99.90;;;;;;4974524;28;20664;-78
2021/11/29 09:38:18;;;;;;;6.22;2.38;;;4.60;99.90;;;;;;4974775;28;20169;-79
2021/11/29 09:40:47;;;;;;;4.28;2.63;;;4.60;99.90;;;;;;4973507;28;20907;-78
2021/11/29 09:43:14;;;;;;;4.60;2.45;;;4.40;99.90;;;;;;4974501;28;20174;-80
2021/11/29 09:45:43;;;;;;;5.45;2.85;;;4.20;99.90;;;;;;4974286;28;20213;-79
2021/11/29 09:48:10;;;;;;;5.65;3.00;;;4.20;99.90;;;;;;4973929;28;20272;-78
2021/11/29 09:50:38;;;;;;;3.80;3.50;;;4.20;99.90;;;;;;4974467;28;20162;-78
2021/11/29 09:53:04;;;;;;;4.53;3.88;;;4.50;99.90;;;;;;4975202;28;20683;-82
2021/11/29 09:55:29;;;;;;;4.90;3.80;;;4.40;99.90;;;;;;4978719;28;20193;-78
2021/11/29 09:57:56;;;;;;;4.85;4.03;;;4.30;99.90;;;;;;4974428;28;20560;-79
2021/11/29 10:00:27;;;;;;;5.32;3.70;;;4.20;99.90;;;;;;4977602;28;20173;-81
2021/11/29 10:02:52;;;;;;;9.18;2.80;;;4.30;99.90;;;;;;4974885;28;20691;-79
2021/11/29 10:05:20;;;;;;;3.38;2.95;;;4.30;99.90;;;;;;4974203;28;20173;-78
2021/11/29 10:07:50;;;;;;;3.60;2.85;;;4.40;99.90;;;;;;4974248;28;20253;-78
2021/11/29 10:10:29;;;;;;;13.27;3.53;;;4.30;99.90;;;;;;4956791;28;20170;-78
2021/11/29 10:13:02;;;;;;;4.00;2.55;;;4.40;99.90;;;;;;4979113;28;20205;-78
2021/11/29 10:15:32;;;;;;;4.22;2.35;;;4.50;99.90;;;;;;4976041;28;20225;-79
2021/11/29 10:18:18;;;;;;;7.63;2.92;;;4.40;99.90;;;;;;4959938;28;20269;-77
2021/11/29 10:21:08;;;;;;;5.22;2.03;;;4.50;99.90;;;;;;4955480;29;20574;-77
2021/11/29 10:23:46;;;;;;;3.63;2.92;;;4.40;99.90;;;;;;4956470;29;20238;-77
2021/11/29 10:26:33;;;;;;;4.30;2.55;;;4.40;99.90;;;;;;4957064;29;20541;-82
2021/11/29 10:29:06;;;;;;;5.53;2.80;;;4.50;99.90;;;;;;4957158;29;20528;-82
2021/11/29 10:31:38;;;;;;;6.18;2.90;;;4.50;99.90;;;;;;4955238;29;20167;-78
2021/11/29 10:34:13;;;;;;;5.30;3.05;;;4.50;99.90;;;;;;4955413;29;20237;-78
2021/11/29 10:36:48;;;;;;;3.25;2.72;;;4.70;99.90;;;;;;4959170;29;20221;-83
2021/11/29 10:39:35;;;;;;;4.80;2.97;;;4.70;99.90;;;;;;4960214;29;20179;-77
2021/11/29 10:42:05;;;;;;;13.35;2.85;;;4.80;99.90;;;;;;4939758;29;20198;-77
2021/11/29 10:44:33;;;;;;;3.95;2.65;;;4.80;99.90;;;;;;4948292;28;20512;-78
2021/11/29 10:47:02;;;;;;;5.63;2.47;;;4.90;99.90;;;;;;4973419;28;20201;-78
2021/11/29 10:49:31;;;;;;;7.78;2.65;;;5.10;99.90;;;;;;4973509;28;20177;-78
2021/11/29 10:51:59;;;;;;;5.60;3.75;;;5.10;99.90;;;;;;4973150;28;20177;-79
2021/11/29 10:54:29;;;;;;;6.90;4.22;;;5.20;99.90;;;;;;4973724;28;20186;-78
2021/11/29 10:56:56;;;;;;;5.90;2.22;;;5.30;99.90;;;;;;4974388;28;20186;-79
2021/11/29 10:59:25;;;;;;;3.25;2.38;;;5.40;99.90;;;;;;4974200;28;20534;-79
2021/11/29 11:02:01;;;;;;;7.30;2.92;;;5.30;99.90;;;;;;4973786;28;20170;-84
2021/11/29 11:04:29;;;;;;;6.60;2.38;;;5.50;99.90;;;;;;4975695;28;20529;-79
2021/11/29 11:07:12;;;;;;;5.82;1.98;;;5.60;99.90;;;;;;4972705;28;20173;-81
2021/11/29 11:09:50;;;;;;;7.53;2.25;;;5.50;99.90;;;;;;4956591;28;20166;-83
2021/11/29 11:12:16;;;;;;;6.60;2.88;;;5.50;99.90;;;;;;4956096;28;20201;-80
2021/11/29 11:14:52;;;;;;;12.63;3.40;;;5.50;99.90;;;;;;4974197;28;20751;-80
2021/11/29 11:17:20;;;;;;;13.23;2.60;;;5.50;99.90;;;;;;4973811;28;20193;-83
2021/11/29 11:19:54;;;;;;;3.47;2.45;;;5.60;99.90;;;;;;4973995;28;20202;-81
2021/11/29 11:22:35;;;;;;;12.65;2.42;;;5.70;99.90;;;;;;4957156;28;20309;-82
2021/11/29 11:25:01;;;;;;;6.95;2.85;;;5.70;99.90;;;;;;4956878;28;20186;-80
2021/11/29 11:27:33;;;;;;;4.57;3.67;;;5.80;99.90;;;;;;4973866;28;20549;-82
2021/11/29 11:30:14;;;;;;;12.18;3.63;;;5.80;99.90;;;;;;4974057;28;20166;-80
2021/11/29 11:32:47;;;;;;;8.75;2.03;;;6.00;99.90;;;;;;4972542;28;20225;-79
2021/11/29 11:35:16;;;;;;;5.45;1.60;;;6.00;99.90;;;;;;4973099;28;20240;-79
2021/11/29 11:37:55;;;;;;;3.72;1.92;;;6.00;99.90;;;;;;4973969;28;20261;-80
2021/11/29 11:40:26;;;;;;;6.85;1.65;;;6.10;99.90;;;;;;4973821;28;20176;-79
2021/11/29 11:42:53;;;;;;;7.82;3.22;;;6.10;99.90;;;;;;4973536;28;20169;-78
2021/11/29 11:45:23;;;;;;;10.70;2.72;;;6.10;99.90;;;;;;4972745;28;20170;-77
2021/11/29 11:47:50;;;;;;;14.68;3.20;;;6.10;99.90;;;;;;4972911;28;20233;-81
2021/11/29 11:50:19;;;;;;;20.45;3.13;;;6.10;99.90;;;;;;4965825;28;20174;-78
2021/11/29 11:52:45;;;;;;;11.45;3.03;;;6.20;99.90;;;;;;4954306;28;20206;-77
2021/11/29 11:55:13;;;;;;;9.73;2.45;;;6.20;99.90;;;;;;4972985;28;20173;-78
2021/11/29 11:57:40;;;;;;;5.63;2.05;;;6.20;99.90;;;;;;4955214;28;20177;-78
2021/11/29 12:00:14;;;;;;;12.27;2.45;;;6.20;99.90;;;;;;4972295;28;20221;-79
2021/11/29 12:03:05;;;;;;;14.02;3.00;;;6.20;99.90;;;;;;4955886;28;20209;-79
2021/11/29 12:05:35;;;;;;;7.00;3.45;;;6.30;99.90;;;;;;4976384;28;20196;-79
2021/11/29 12:08:03;;;;;;;5.68;2.35;;;6.40;99.90;;;;;;4960041;28;20178;-85
2021/11/29 12:10:39;;;;;;;10.25;2.08;;;6.30;99.90;;;;;;4975649;28;20194;-80
2021/11/29 12:13:10;;;;;;;7.28;2.03;;;6.30;99.90;;;;;;4956192;28;20343;-80
2021/11/29 12:15:44;;;;;;;9.75;1.35;;;6.40;99.90;;;;;;4966212;28;20190;-82
2021/11/29 12:18:14;;;;;;;10.30;1.90;;;6.50;99.90;;;;;;4965438;28;20178;-81
2021/11/29 12:20:41;;;;;;;5.40;2.75;;;6.50;99.90;;;;;;4940589;29;20515;-81
2021/11/29 12:23:44;;;;;;;10.13;2.15;;;6.60;99.90;;;;;;4941237;29;20193;-85
2021/11/29 12:26:09;;;;;;;10.75;1.73;;;6.70;99.90;;;;;;4958829;29;20693;-82
2021/11/29 12:28:39;;;;;;;6.93;1.60;;;6.90;99.90;;;;;;4958446;29;20178;-82
2021/11/29 12:31:35;;;;;;;10.82;1.98;;;6.90;99.90;;;;;;4958031;29;20171;-82
2021/11/29 12:34:06;;;;;;;9.02;1.50;;;6.80;99.90;;;;;;4956452;29;20217;-81
2021/11/29 12:36:54;;;;;;;2.00;1.20;;;6.80;99.90;;;;;;4941563;29;20190;-81
2021/11/29 12:39:47;;;;;;;7.35;1.85;;;6.70;99.90;;;;;;4958040;29;20513;-82
2021/11/29 12:42:18;;;;;;;5.50;1.90;;;6.70;99.90;;;;;;4940769;29;20651;-82
2021/11/29 12:44:55;;;;;;;5.85;1.67;;;6.80;99.90;;;;;;4957705;29;20581;-82
2021/11/29 12:47:24;;;;;;;5.95;1.35;;;6.80;99.90;;;;;;4957352;29;20234;-82
2021/11/29 12:49:55;;;;;;;4.25;1.33;;;6.70;99.90;;;;;;4957447;29;20261;-82
2021/11/29 12:52:27;;;;;;;12.20;1.88;;;6.70;99.90;;;;;;4957330;29;20194;-83
2021/11/29 12:54:53;;;;;;;4.28;0.85;;;6.80;99.90;;;;;;4957587;29;20257;-82
2021/11/29 12:57:19;;;;;;;3.70;1.27;;;6.80;99.90;;;;;;4957226;29;20249;-81